usa flag      colorado flag

Language: 

TigerDenWX History Data from Weather Underground


TigerDenWX Weather Station Historical Data
 
Daily Summary for June 25, 2018 Units:  English    Metric   Both
« Previous Day
Next Day »
Daily Weekly Monthly Yearly Custom
  Current: High: Low: Average:
Temperature: 76.4 °F TemperatureF °F 48.4 °F 59 °F
Dew Point: 45.9 °F DewpointF °F 44.6 °F 47.4 °F
Humidity: 34 % Humidity % 33 % 70 %
Wind Speed: 0.0 mph WindSpeedMPH mph 0.0 mph 0.5 mph
Wind Gust: 5.0 mph WindSpeedGustMPH mph - -
Wind:Calm - - SSE
Pressure: 29.87 in PressureIn in 29.87 in -
Precipitation: 0.01 in      
Historical Graphs
 
 
Tabular Data for June 25, 2018
Time Temperature Dew Point Pressure Wind Wind Speed Wind Gust Humidity Rainfall Rate (Hourly) solar
TemperatureF °F DewpointF °F PressureIn in Calm     Humidity % HourlyPrecipIn in SolarRadiationWatts/m^2 W/m2
00:00 53.5 °F 49.1 °F 29.93 in Calm   1.0 mph 85 % 0.00 in 0.00 W/m2
00:05 53.5 °F 49.1 °F 29.93 in Calm   3.0 mph 85 % 0.00 in 0.00 W/m2
00:09 53.6 °F 49.2 °F 29.93 in WNW 1.0 mph 3.0 mph 85 % 0.00 in 0.00 W/m2
00:14 53.6 °F 49.2 °F 29.93 in Calm   2.0 mph 85 % 0.00 in 0.00 W/m2
00:20 53.6 °F 49.2 °F 29.93 in Calm   2.0 mph 85 % 0.00 in 0.00 W/m2
00:25 53.6 °F 49.2 °F 29.93 in Calm   2.0 mph 85 % 0.00 in 0.00 W/m2
00:30 53.5 °F 49.1 °F 29.93 in Calm     85 % 0.00 in 0.00 W/m2
00:35 53.4 °F 49.0 °F 29.93 in Calm     85 % 0.00 in 0.00 W/m2
00:40 53.2 °F 48.8 °F 29.93 in Calm     85 % 0.00 in 0.00 W/m2
00:44 53.0 °F 48.9 °F 29.93 in Calm     86 % 0.00 in 0.00 W/m2
00:49 52.8 °F 48.7 °F 29.93 in Calm     86 % 0.00 in 0.00 W/m2
00:54 52.6 °F 48.5 °F 29.92 in Calm     86 % 0.00 in 0.00 W/m2
00:59 52.4 °F 48.3 °F 29.92 in Calm     86 % 0.00 in 0.00 W/m2
01:04 52.2 °F 48.1 °F 29.93 in Calm     86 % 0.00 in 0.00 W/m2
01:10 52.0 °F 48.3 °F 29.93 in Calm     87 % 0.00 in 0.00 W/m2
01:14 51.8 °F 48.1 °F 29.93 in Calm     87 % 0.00 in 0.00 W/m2
01:20 51.5 °F 47.8 °F 29.93 in Calm     87 % 0.00 in 0.00 W/m2
01:25 51.3 °F 47.6 °F 29.93 in Calm     87 % 0.00 in 0.00 W/m2
01:29 51.1 °F 47.4 °F 29.94 in Calm     87 % 0.00 in 0.00 W/m2
01:35 50.9 °F 47.5 °F 29.94 in Calm     88 % 0.00 in 0.00 W/m2
01:40 50.8 °F 47.4 °F 29.94 in Calm     88 % 0.00 in 0.00 W/m2
01:44 50.6 °F 47.2 °F 29.94 in Calm     88 % 0.00 in 0.00 W/m2
01:49 50.5 °F 47.1 °F 29.94 in Calm     88 % 0.00 in 0.00 W/m2
01:54 50.4 °F 47.0 °F 29.94 in Calm     88 % 0.00 in 0.00 W/m2
01:59 50.4 °F 47.0 °F 29.94 in Calm     88 % 0.00 in 0.00 W/m2
02:05 50.2 °F 46.8 °F 29.95 in Calm     88 % 0.00 in 0.00 W/m2
02:09 50.1 °F 47.0 °F 29.95 in Calm     89 % 0.00 in 0.00 W/m2
02:14 50.0 °F 46.9 °F 29.96 in Calm     89 % 0.00 in 0.00 W/m2
02:19 49.9 °F 46.8 °F 29.96 in Calm     89 % 0.00 in 0.00 W/m2
02:25 49.9 °F 46.8 °F 29.96 in Calm     89 % 0.00 in 0.00 W/m2
02:29 50.0 °F 46.9 °F 29.96 in Calm     89 % 0.00 in 0.00 W/m2
02:35 50.2 °F 47.4 °F 29.96 in Calm     90 % 0.00 in 0.00 W/m2
02:39 50.3 °F 47.5 °F 29.96 in Calm     90 % 0.00 in 0.00 W/m2
02:44 50.1 °F 47.3 °F 29.96 in Calm     90 % 0.00 in 0.00 W/m2
02:49 50.0 °F 46.9 °F 29.96 in Calm     89 % 0.00 in 0.00 W/m2
02:55 50.1 °F 47.3 °F 29.96 in Calm     90 % 0.00 in 0.00 W/m2
02:59 50.1 °F 47.3 °F 29.96 in Calm     90 % 0.00 in 0.00 W/m2
03:05 50.1 °F 47.3 °F 29.96 in Calm     90 % 0.00 in 0.00 W/m2
03:10 50.1 °F 47.3 °F 29.96 in Calm   2.0 mph 90 % 0.00 in 0.00 W/m2
03:15 50.1 °F 47.3 °F 29.96 in Calm   2.0 mph 90 % 0.00 in 0.00 W/m2
03:20 50.2 °F 47.4 °F 29.96 in Calm   1.0 mph 90 % 0.00 in 0.00 W/m2
03:25 50.3 °F 47.5 °F 29.96 in Calm     90 % 0.00 in 0.00 W/m2
03:29 50.3 °F 47.5 °F 29.96 in Calm   1.0 mph 90 % 0.00 in 0.00 W/m2
03:35 50.2 °F 47.4 °F 29.96 in Calm   1.0 mph 90 % 0.00 in 0.00 W/m2
03:39 50.1 °F 47.3 °F 29.96 in ESE 1.0 mph 2.0 mph 90 % 0.01 in 0.00 W/m2
03:44 50.1 °F 47.3 °F 29.96 in Calm   2.0 mph 90 % 0.01 in 0.00 W/m2
03:50 50.2 °F 47.4 °F 29.96 in Calm   2.0 mph 90 % 0.01 in 0.00 W/m2
03:54 50.2 °F 47.4 °F 29.96 in Calm   1.0 mph 90 % 0.01 in 0.00 W/m2
03:59 50.1 °F 47.3 °F 29.96 in Calm   1.0 mph 90 % 0.01 in 0.00 W/m2
04:04 50.2 °F 47.4 °F 29.96 in Calm   1.0 mph 90 % 0.01 in 0.00 W/m2
04:09 50.2 °F 47.4 °F 29.96 in Calm   1.0 mph 90 % 0.01 in 0.00 W/m2
04:14 50.2 °F 47.4 °F 29.96 in Calm   2.0 mph 90 % 0.01 in 0.00 W/m2
04:20 50.1 °F 47.3 °F 29.96 in South 1.0 mph 3.0 mph 90 % 0.01 in 0.00 W/m2
04:25 50.0 °F 47.2 °F 29.96 in Calm   3.0 mph 90 % 0.01 in 0.00 W/m2
04:30 50.0 °F 47.2 °F 29.96 in Calm   3.0 mph 90 % 0.01 in 0.00 W/m2
04:35 50.0 °F 46.9 °F 29.96 in Calm   2.0 mph 89 % 0.01 in 0.00 W/m2
04:39 49.9 °F 46.8 °F 29.96 in Calm   2.0 mph 89 % 0.00 in 0.00 W/m2
04:44 49.8 °F 46.7 °F 29.95 in Calm   1.0 mph 89 % 0.00 in 0.00 W/m2
04:49 49.7 °F 46.6 °F 29.95 in Calm   1.0 mph 89 % 0.00 in 0.00 W/m2
04:54 49.5 °F 46.4 °F 29.96 in Calm     89 % 0.00 in 0.00 W/m2
04:59 49.4 °F 46.3 °F 29.96 in Calm     89 % 0.00 in 0.00 W/m2
05:04 49.3 °F 46.2 °F 29.96 in Calm   2.0 mph 89 % 0.00 in 0.00 W/m2
05:10 49.1 °F 46.0 °F 29.96 in Calm   2.0 mph 89 % 0.00 in 0.00 W/m2
05:14 49.0 °F 45.9 °F 29.96 in Calm     89 % 0.00 in 0.00 W/m2
05:20 48.8 °F 45.7 °F 29.96 in Calm     89 % 0.00 in 0.00 W/m2
05:25 48.6 °F 45.5 °F 29.96 in Calm     89 % 0.00 in 0.00 W/m2
05:29 48.5 °F 45.4 °F 29.96 in South 1.0 mph 1.0 mph 89 % 0.00 in 0.00 W/m2
05:35 48.5 °F 45.4 °F 29.96 in Calm   1.0 mph 89 % 0.00 in 0.00 W/m2
05:39 48.4 °F 45.3 °F 29.96 in Calm     89 % 0.00 in 5.00 W/m2
05:45 48.5 °F 45.7 °F 29.96 in Calm   1.0 mph 90 % 0.00 in 7.00 W/m2
05:50 48.6 °F 45.8 °F 29.95 in Calm   1.0 mph 90 % 0.00 in 11.00 W/m2
05:55 48.7 °F 45.9 °F 29.95 in Calm   1.0 mph 90 % 0.00 in 12.00 W/m2
06:00 48.8 °F 46.0 °F 29.95 in Calm   2.0 mph 90 % 0.00 in 12.00 W/m2
06:05 49.0 °F 46.2 °F 29.95 in Calm   3.0 mph 90 % 0.00 in 14.00 W/m2
06:10 49.1 °F 46.3 °F 29.96 in Calm   3.0 mph 90 % 0.00 in 16.00 W/m2
06:14 49.3 °F 46.5 °F 29.96 in Calm   2.0 mph 90 % 0.00 in 18.00 W/m2
06:20 49.4 °F 46.6 °F 29.96 in Calm   2.0 mph 90 % 0.00 in 19.00 W/m2
06:24 49.7 °F 46.6 °F 29.96 in Calm   3.0 mph 89 % 0.00 in 19.00 W/m2
06:30 49.9 °F 46.8 °F 29.96 in Calm   3.0 mph 89 % 0.00 in 21.00 W/m2
06:35 50.2 °F 47.1 °F 29.96 in Calm   2.0 mph 89 % 0.00 in 26.00 W/m2
06:40 50.5 °F 47.1 °F 29.97 in Calm   3.0 mph 88 % 0.00 in 26.00 W/m2
06:45 50.7 °F 47.3 °F 29.97 in South 1.0 mph 3.0 mph 88 % 0.00 in 137.00 W/m2
06:50 51.3 °F 47.9 °F 29.97 in Calm   3.0 mph 88 % 0.00 in 169.00 W/m2
06:54 52.1 °F 48.3 °F 29.96 in Calm   3.0 mph 87 % 0.00 in 190.00 W/m2
06:59 52.9 °F 48.8 °F 29.96 in Calm   3.0 mph 86 % 0.00 in 207.00 W/m2
07:05 53.7 °F 49.0 °F 29.95 in Calm   2.0 mph 84 % 0.00 in 227.00 W/m2
07:09 54.5 °F 49.1 °F 29.95 in Calm   2.0 mph 82 % 0.00 in 243.00 W/m2
07:15 55.5 °F 49.4 °F 29.95 in Calm   1.0 mph 80 % 0.00 in 257.00 W/m2
07:19 56.3 °F 49.5 °F 29.96 in Calm   4.0 mph 78 % 0.00 in 276.00 W/m2
07:24 56.9 °F 49.8 °F 29.96 in Calm   4.0 mph 77 % 0.00 in 297.00 W/m2
07:29 57.5 °F 50.0 °F 29.96 in Calm   4.0 mph 76 % 0.00 in 311.00 W/m2
07:34 58.2 °F 50.3 °F 29.96 in Calm   3.0 mph 75 % 0.00 in 327.00 W/m2
07:39 58.8 °F 50.5 °F 29.96 in Calm   3.0 mph 74 % 0.00 in 339.00 W/m2
07:44 59.4 °F 50.7 °F 29.96 in Calm   4.0 mph 73 % 0.00 in 357.00 W/m2
07:49 60.0 °F 50.9 °F 29.96 in SW 1.0 mph 4.0 mph 72 % 0.00 in 374.00 W/m2
07:54 60.7 °F 50.9 °F 29.96 in Calm   3.0 mph 70 % 0.00 in 392.00 W/m2
07:59 61.3 °F 51.0 °F 29.96 in SSW 1.0 mph 5.0 mph 69 % 0.00 in 406.00 W/m2
08:04 61.8 °F 51.1 °F 29.96 in Calm   5.0 mph 68 % 0.00 in 427.00 W/m2
08:09 62.3 °F 51.2 °F 29.96 in Calm   3.0 mph 67 % 0.00 in 445.00 W/m2
08:14 62.9 °F 51.4 °F 29.96 in Calm   5.0 mph 66 % 0.00 in 457.00 W/m2
08:19 63.5 °F 51.5 °F 29.96 in Calm   5.0 mph 65 % 0.00 in 475.00 W/m2
08:24 64.0 °F 51.6 °F 29.96 in WSW 2.0 mph 4.0 mph 64 % 0.00 in 494.00 W/m2
08:29 64.3 °F 51.4 °F 29.96 in Calm   6.0 mph 63 % 0.00 in 510.00 W/m2
08:34 64.8 °F 51.5 °F 29.95 in Calm   6.0 mph 62 % 0.00 in 526.00 W/m2
08:39 65.4 °F 51.1 °F 29.95 in Calm   6.0 mph 60 % 0.00 in 543.00 W/m2
08:44 65.8 °F 51.1 °F 29.95 in WSW 1.0 mph 6.0 mph 59 % 0.00 in 559.00 W/m2
08:49 66.3 °F 50.6 °F 29.96 in SE 3.0 mph 6.0 mph 57 % 0.00 in 571.00 W/m2
08:54 66.8 °F 50.1 °F 29.96 in Calm   3.0 mph 55 % 0.00 in 591.00 W/m2
08:59 67.3 °F 49.6 °F 29.96 in Calm   3.0 mph 53 % 0.00 in 603.00 W/m2
09:04 67.8 °F 50.0 °F 29.96 in Calm   5.0 mph 53 % 0.00 in 621.00 W/m2
09:09 68.2 °F 48.8 °F 29.95 in Calm   5.0 mph 50 % 0.00 in 638.00 W/m2
09:14 68.7 °F 48.2 °F 29.95 in ESE 3.0 mph 3.0 mph 48 % 0.00 in 654.00 W/m2
09:19 68.9 °F 48.4 °F 29.95 in Calm   3.0 mph 48 % 0.00 in 664.00 W/m2
09:24 69.3 °F 47.6 °F 29.95 in Calm   3.0 mph 46 % 0.00 in 679.00 W/m2
09:29 69.5 °F 47.2 °F 29.94 in Calm   5.0 mph 45 % 0.00 in 693.00 W/m2
09:34 69.6 °F 47.3 °F 29.94 in Calm   5.0 mph 45 % 0.00 in 707.00 W/m2
09:39 69.8 °F 46.3 °F 29.94 in WNW 3.0 mph 3.0 mph 43 % 0.00 in 719.00 W/m2
09:44 69.9 °F 47.0 °F 29.94 in North 3.0 mph 5.0 mph 44 % 0.00 in 737.00 W/m2
09:49 69.6 °F 46.1 °F 29.94 in Calm   5.0 mph 43 % 0.00 in 751.00 W/m2
09:54 69.6 °F 46.7 °F 29.94 in Calm   5.0 mph 44 % 0.00 in 761.00 W/m2
09:59 69.8 °F 46.9 °F 29.94 in ENE 1.0 mph 3.0 mph 44 % 0.00 in 773.00 W/m2
10:04 70.0 °F 46.5 °F 29.94 in Calm   3.0 mph 43 % 0.00 in 788.00 W/m2
10:09 70.1 °F 44.6 °F 29.94 in Calm   3.0 mph 40 % 0.00 in 800.00 W/m2
10:14 70.0 °F 46.5 °F 29.93 in Calm   3.0 mph 43 % 0.00 in 810.00 W/m2
10:19 70.0 °F 47.1 °F 29.93 in Calm   2.0 mph 44 % 0.00 in 823.00 W/m2
10:24 70.3 °F 46.7 °F 29.93 in Calm   2.0 mph 43 % 0.00 in 835.00 W/m2
10:29 71.0 °F 47.4 °F 29.93 in Calm   2.0 mph 43 % 0.00 in 846.00 W/m2
10:34 71.3 °F 47.0 °F 29.93 in Calm   6.0 mph 42 % 0.00 in 856.00 W/m2
10:39 71.7 °F 48.6 °F 29.93 in WSW 6.0 mph 6.0 mph 44 % 0.00 in 867.00 W/m2
10:44 72.0 °F 47.0 °F 29.93 in Calm   6.0 mph 41 % 0.00 in 877.00 W/m2
10:49 71.9 °F 45.6 °F 29.93 in Calm   5.0 mph 39 % 0.00 in 884.00 W/m2
10:54 71.9 °F 46.9 °F 29.92 in Calm   5.0 mph 41 % 0.00 in 900.00 W/m2
10:59 72.3 °F 46.6 °F 29.92 in Calm   5.0 mph 40 % 0.00 in 907.00 W/m2
11:04 72.4 °F 46.7 °F 29.92 in SW 3.0 mph 3.0 mph 40 % 0.00 in 916.00 W/m2
11:09 72.2 °F 46.5 °F 29.92 in Calm   5.0 mph 40 % 0.00 in 923.00 W/m2
11:14 72.5 °F 46.1 °F 29.92 in Calm   5.0 mph 39 % 0.00 in 933.00 W/m2
11:19 72.5 °F 46.1 °F 29.92 in SSE 1.0 mph 2.0 mph 39 % 0.00 in 940.00 W/m2
11:24 72.1 °F 47.1 °F 29.92 in SW 1.0 mph 7.0 mph 41 % 0.00 in 951.00 W/m2
11:29 72.5 °F 46.8 °F 29.92 in SW 2.0 mph 7.0 mph 40 % 0.00 in 962.00 W/m2
11:34 72.9 °F 47.8 °F 29.91 in SW 1.0 mph 7.0 mph 41 % 0.00 in 967.00 W/m2
11:39 73.6 °F 47.1 °F 29.91 in East 1.0 mph 4.0 mph 39 % 0.00 in 977.00 W/m2
11:44 73.7 °F 46.5 °F 29.91 in Calm   4.0 mph 38 % 0.00 in 983.00 W/m2
11:49 73.7 °F 49.2 °F 29.91 in NE 3.0 mph 4.0 mph 42 % 0.00 in 990.00 W/m2
11:54 74.1 °F 46.2 °F 29.91 in NNE 3.0 mph 5.0 mph 37 % 0.00 in 1000.00 W/m2
11:59 73.9 °F 48.1 °F 29.90 in Calm   5.0 mph 40 % 0.00 in 1002.00 W/m2
12:04 74.3 °F 47.0 °F 29.90 in West 3.0 mph 6.0 mph 38 % 0.00 in 1009.00 W/m2
12:09 74.4 °F 47.1 °F 29.90 in NNW 4.0 mph 6.0 mph 38 % 0.00 in 1016.00 W/m2
12:14 74.8 °F 46.1 °F 29.90 in NNE 2.0 mph 6.0 mph 36 % 0.00 in 1018.00 W/m2
12:19 74.7 °F 48.8 °F 29.90 in Calm   6.0 mph 40 % 0.00 in 1025.00 W/m2
12:24 74.8 °F 46.1 °F 29.90 in Calm   5.0 mph 36 % 0.00 in 1025.00 W/m2
12:29 74.8 °F 46.8 °F 29.90 in Calm   5.0 mph 37 % 0.00 in 1032.00 W/m2
12:34 75.6 °F 50.2 °F 29.89 in Calm   5.0 mph 41 % 0.00 in 1034.00 W/m2
12:39 76.5 °F 49.0 °F 29.89 in SE 3.0 mph 6.0 mph 38 % 0.00 in 1037.00 W/m2
12:45 75.9 °F 49.2 °F 29.89 in NNE 3.0 mph 7.0 mph 39 % 0.00 in 1034.00 W/m2
12:49 76.5 °F 48.3 °F 29.89 in Calm   7.0 mph 37 % 0.00 in 1035.00 W/m2
12:54 76.0 °F 47.1 °F 29.88 in North 4.0 mph 6.0 mph 36 % 0.00 in 1035.00 W/m2
12:59 76.0 °F 46.4 °F 29.88 in NE 4.0 mph 7.0 mph 35 % 0.00 in 1037.00 W/m2
13:04 75.5 °F 45.2 °F 29.88 in ESE 1.0 mph 7.0 mph 34 % 0.00 in 1035.00 W/m2
13:09 76.4 °F 46.7 °F 29.88 in ESE 1.0 mph 5.0 mph 35 % 0.00 in 1030.00 W/m2
13:14 76.8 °F 45.5 °F 29.87 in SSW 3.0 mph 5.0 mph 33 % 0.00 in 1025.00 W/m2
13:19 76.9 °F 45.6 °F 29.87 in ENE 2.0 mph 4.0 mph 33 % 0.00 in 1021.00 W/m2
13:24 76.4 °F 45.9 °F 29.87 in Calm   5.0 mph 34 % 0.00 in 1016.00 W/m2
SE Aurora, Colorado Weather
Compliments of Weather Underground - 2 mb
top